createdAt,value
2022-10-23T00:01:21.136Z,97825.69
2022-10-23T00:03:50.981Z,97818.41
2022-10-23T00:06:18.588Z,97825.16
2022-10-23T00:08:47.945Z,97822.72
2022-10-23T00:11:17.391Z,97829.44
2022-10-23T00:13:45.157Z,97823.78
2022-10-23T00:16:12.189Z,97827.81
2022-10-23T00:18:39.827Z,97820.81
2022-10-23T00:21:12.769Z,97821.34
2022-10-23T00:23:40.648Z,97823.78
2022-10-23T00:26:11.382Z,97832.69
2022-10-23T00:28:38.482Z,97823.50
2022-10-23T00:31:05.873Z,97827.00
2022-10-23T00:33:33.517Z,97833.75
2022-10-23T00:36:00.254Z,97822.44
2022-10-23T00:38:27.139Z,97828.34
2022-10-23T00:40:53.844Z,97828.34
2022-10-23T00:43:25.893Z,97824.31
2022-10-23T00:45:52.943Z,97817.59
2022-10-23T00:48:20.565Z,62402.38
2022-10-23T00:50:49.926Z,62402.38
2022-10-23T00:53:19.025Z,62402.38
2022-10-23T00:55:48.563Z,62402.38
2022-10-23T00:58:16.653Z,62402.38
2022-10-23T01:00:48.225Z,62402.38
2022-10-23T01:03:17.113Z,62402.38
2022-10-23T01:05:50.395Z,62402.38
2022-10-23T01:08:26.302Z,62402.38
2022-10-23T01:10:56.993Z,62402.38
2022-10-23T01:13:32.213Z,62402.38
2022-10-23T01:16:08.102Z,62402.38
2022-10-23T01:18:41.610Z,62402.38
2022-10-23T01:21:13.611Z,62402.38
2022-10-23T01:24:10.318Z,62402.38
2022-10-23T01:26:50.144Z,62402.38
2022-10-23T01:29:23.635Z,62402.38
2022-10-23T01:31:57.542Z,62402.38
2022-10-23T01:34:28.497Z,62402.38
2022-10-23T01:36:57.130Z,62402.38
2022-10-23T01:39:27.558Z,62402.38
2022-10-23T01:41:58.639Z,62402.38
2022-10-23T01:44:33.001Z,62402.38
2022-10-23T01:47:02.116Z,97771.81
2022-10-23T01:49:30.383Z,97764.25
2022-10-23T01:52:01.263Z,97757.50
2022-10-23T01:54:31.556Z,97764.25
2022-10-23T01:56:59.466Z,97763.44
2022-10-23T01:59:32.295Z,97765.84
2022-10-23T02:02:01.506Z,97767.22
2022-10-23T02:04:34.371Z,97759.94
2022-10-23T02:07:01.349Z,97749.41
2022-10-23T02:09:28.293Z,97746.72
2022-10-23T02:12:02.048Z,97738.38
2022-10-23T02:14:37.905Z,97736.78
2022-10-23T02:17:12.748Z,97731.66
2022-10-23T02:19:47.077Z,97730.81
2022-10-23T02:22:20.972Z,97730.56
2022-10-23T02:24:50.691Z,97734.09
2022-10-23T02:27:21.732Z,97736.78
2022-10-23T02:29:55.160Z,97732.44
2022-10-23T02:32:25.606Z,97731.13
2022-10-23T02:34:52.386Z,97734.09
2022-10-23T02:37:19.178Z,97723.56
2022-10-23T02:39:46.065Z,97714.69
2022-10-23T02:42:21.991Z,97726.00
2022-10-23T02:45:00.208Z,97713.59
2022-10-23T02:47:46.755Z,97706.03
2022-10-23T02:50:24.972Z,97705.50
2022-10-23T02:53:04.479Z,97701.22
2022-10-23T02:55:44.520Z,97705.25
2022-10-23T02:58:19.280Z,97701.47
2022-10-23T03:00:52.350Z,97694.47
2022-10-23T03:03:23.738Z,97690.16
2022-10-23T03:05:50.997Z,97703.63
2022-10-23T03:08:19.969Z,97702.53
2022-10-23T03:13:13.367Z,97702.28
2022-10-23T03:15:40.225Z,97701.75
2022-10-23T03:18:08.342Z,97696.09
2022-10-23T03:20:35.377Z,97703.34
2022-10-23T03:23:02.264Z,97695.00
2022-10-23T03:25:29.106Z,97700.13
2022-10-23T03:27:55.952Z,97702.03
2022-10-23T03:30:22.636Z,97694.19
2022-10-23T03:32:49.352Z,97694.47
2022-10-23T03:35:17.427Z,97693.91
2022-10-23T03:37:44.286Z,97698.22
2022-10-23T03:40:12.034Z,97700.09
2022-10-23T03:42:38.704Z,97689.06
2022-10-23T03:45:06.061Z,97678.31
2022-10-23T03:47:35.322Z,97683.97
2022-10-23T03:50:02.131Z,97676.13
2022-10-23T03:52:30.195Z,97685.31
2022-10-23T03:54:56.934Z,97685.06
2022-10-23T03:57:24.229Z,97686.13
2022-10-23T03:59:51.038Z,97689.13
2022-10-23T04:02:18.726Z,97683.97
2022-10-23T04:04:45.526Z,97678.59
2022-10-23T04:07:12.262Z,97689.09
2022-10-23T04:09:40.472Z,97696.38
2022-10-23T04:12:07.867Z,97690.72
2022-10-23T04:14:34.735Z,97684.81
2022-10-23T04:17:01.495Z,97682.91
2022-10-23T04:19:28.171Z,97677.25
2022-10-23T04:21:54.911Z,97674.84
2022-10-23T04:24:21.591Z,97685.06
2022-10-23T04:26:49.609Z,97682.63
2022-10-23T04:29:16.653Z,97689.13
2022-10-23T04:31:43.322Z,97692.06
2022-10-23T04:34:10.115Z,97684.78
2022-10-23T04:36:36.816Z,97682.06
2022-10-23T04:39:04.124Z,97696.09
2022-10-23T04:41:30.904Z,97695.28
2022-10-23T04:43:58.942Z,97681.81
2022-10-23T04:46:25.828Z,97679.41
2022-10-23T04:48:52.492Z,97679.41
2022-10-23T04:51:19.467Z,97677.25
2022-10-23T04:53:46.582Z,97676.47
2022-10-23T04:56:15.097Z,97667.56
2022-10-23T04:58:42.403Z,97672.69
2022-10-23T05:01:10.822Z,97668.88
2022-10-23T05:03:38.623Z,97676.72
2022-10-23T05:06:06.091Z,97681.03
2022-10-23T05:08:32.968Z,97682.91
2022-10-23T05:10:59.661Z,97672.13
2022-10-23T05:13:26.308Z,97659.47
2022-10-23T05:15:54.172Z,97662.19
2022-10-23T05:18:26.903Z,97658.97
2022-10-23T05:20:59.479Z,97653.56
2022-10-23T05:23:28.772Z,97649.53
2022-10-23T05:25:55.468Z,97658.72
2022-10-23T05:28:22.364Z,97660.03
2022-10-23T05:30:49.495Z,97647.66
2022-10-23T05:33:16.247Z,97653.31
2022-10-23T05:35:45.445Z,97643.34
2022-10-23T05:38:13.399Z,97640.91
2022-10-23T05:40:40.370Z,97646.03
2022-10-23T05:43:07.171Z,97646.59
2022-10-23T05:45:33.982Z,97641.19
2022-10-23T05:48:10.935Z,97640.66
2022-10-23T05:50:44.981Z,97635.50
2022-10-23T05:53:11.846Z,97625.28
2022-10-23T05:55:38.773Z,97628.50
2022-10-23T05:58:05.984Z,97629.84
2022-10-23T06:00:32.839Z,97635.78
2022-10-23T06:03:00.083Z,97621.25
2022-10-23T06:05:27.066Z,97625.25
2022-10-23T06:07:59.367Z,97621.78
2022-10-23T06:10:26.635Z,97619.91
2022-10-23T06:12:53.329Z,97613.97
2022-10-23T06:15:20.660Z,97618.81
2022-10-23T06:17:47.783Z,97620.44
2022-10-23T06:20:14.735Z,97614.50
2022-10-23T06:22:41.597Z,97603.72
2022-10-23T06:25:10.257Z,97619.63
2022-10-23T06:27:37.010Z,97614.22
2022-10-23T06:30:04.313Z,97613.97
2022-10-23T06:32:31.680Z,97615.00
2022-10-23T06:34:58.460Z,97599.69
2022-10-23T06:37:25.151Z,97603.19
2022-10-23T06:39:51.875Z,97606.97
2022-10-23T06:42:20.151Z,97608.56
2022-10-23T06:44:46.867Z,97601.31
2022-10-23T06:47:14.708Z,97602.63
2022-10-23T06:49:41.823Z,97603.69
2022-10-23T06:52:14.545Z,97608.78
2022-10-23T06:54:55.728Z,97601.75
2022-10-23T06:57:23.878Z,97595.56
2022-10-23T06:59:50.772Z,97591.22
2022-10-23T07:02:17.621Z,97601.09
2022-10-23T07:04:44.390Z,97599.19
2022-10-23T07:07:11.101Z,97594.34
2022-10-23T07:09:37.878Z,97611.53
2022-10-23T07:12:04.789Z,97598.78
2022-10-23T07:14:33.273Z,97611.09
2022-10-23T07:17:00.020Z,62402.38
2022-10-23T07:19:27.719Z,97606.50
2022-10-23T07:21:54.672Z,97608.31
2022-10-23T07:24:21.709Z,97598.41
2022-10-23T07:26:48.394Z,97599.06
2022-10-23T07:29:15.339Z,97611.94
2022-10-23T07:31:44.578Z,97601.91
2022-10-23T07:34:11.645Z,97593.66
2022-10-23T07:36:38.408Z,97590.97
2022-10-23T07:39:05.774Z,97594.47
2022-10-23T07:41:32.663Z,97596.44
2022-10-23T07:43:59.666Z,97596.09
2022-10-23T07:46:26.618Z,97588.94
2022-10-23T07:48:54.843Z,97592.56
2022-10-23T07:51:21.590Z,97587.16
2022-10-23T07:53:48.497Z,97588.34
2022-10-23T07:56:16.819Z,97596.31
2022-10-23T07:58:43.757Z,62402.38
2022-10-23T08:01:16.760Z,97583.13
2022-10-23T08:03:44.203Z,97583.72
2022-10-23T08:06:12.737Z,97583.59
2022-10-23T08:08:39.587Z,97587.66
2022-10-23T08:11:07.667Z,97581.25
2022-10-23T08:13:34.904Z,97583.59
2022-10-23T08:16:02.461Z,97581.31
2022-10-23T08:18:29.726Z,97581.31
2022-10-23T08:21:02.733Z,97575.50
2022-10-23T08:23:31.216Z,97580.53
2022-10-23T08:26:01.423Z,97571.88
2022-10-23T08:28:29.143Z,97572.28
2022-10-23T08:30:57.179Z,62402.38
2022-10-23T08:33:24.146Z,62402.38
2022-10-23T08:35:51.455Z,62402.38
2022-10-23T08:38:18.419Z,62402.38
2022-10-23T08:40:49.462Z,62402.38
2022-10-23T08:43:21.956Z,62402.38
2022-10-23T08:45:55.471Z,62402.38
2022-10-23T08:48:28.392Z,62402.38
2022-10-23T08:51:00.413Z,62402.38
2022-10-23T08:53:32.807Z,62402.38
2022-10-23T08:56:04.632Z,62402.38
2022-10-23T08:58:39.640Z,62402.38
2022-10-23T09:01:35.048Z,62402.38
2022-10-23T09:04:04.225Z,62402.38
2022-10-23T09:06:37.983Z,97566.56
2022-10-23T09:09:22.982Z,97572.19
2022-10-23T09:12:00.293Z,97573.06
2022-10-23T09:14:45.926Z,97568.72
2022-10-23T09:17:21.410Z,97556.72
2022-10-23T09:19:54.042Z,97554.03
2022-10-23T09:22:21.577Z,97538.56
2022-10-23T09:24:53.690Z,97547.19
2022-10-23T09:27:22.708Z,97543.75
2022-10-23T09:29:51.980Z,97533.19
2022-10-23T09:32:20.912Z,97540.34
2022-10-23T09:34:54.417Z,97540.84
2022-10-23T09:37:24.365Z,97539.25
2022-10-23T09:40:05.122Z,97530.63
2022-10-23T09:42:33.496Z,97528.06
2022-10-23T09:45:02.094Z,97528.06
2022-10-23T09:47:29.078Z,97549.50
2022-10-23T09:49:57.529Z,97548.22
2022-10-23T09:52:30.585Z,97551.88
2022-10-23T09:55:00.623Z,97551.22
2022-10-23T09:57:31.413Z,97545.66
2022-10-23T10:00:05.170Z,97537.06
2022-10-23T10:02:34.054Z,97552.75
2022-10-23T10:05:21.564Z,97557.19
2022-10-23T10:07:56.086Z,97559.25
2022-10-23T10:10:24.314Z,97552.56
2022-10-23T10:12:59.142Z,97541.59
2022-10-23T10:15:35.924Z,97540.00
2022-10-23T10:18:13.102Z,97527.06
2022-10-23T10:20:54.574Z,97523.94
2022-10-23T10:23:30.129Z,97527.34
2022-10-23T10:26:08.181Z,97518.72
2022-10-23T10:28:54.319Z,97512.81
2022-10-23T10:31:31.512Z,97506.25
2022-10-23T10:34:10.566Z,97496.81
2022-10-23T10:36:49.479Z,97507.97
2022-10-23T10:39:38.674Z,97509.56
2022-10-23T10:42:30.114Z,97511.97
2022-10-23T10:45:08.071Z,97491.81
2022-10-23T10:47:47.551Z,97493.44
2022-10-23T10:50:33.297Z,97499.19
2022-10-23T10:53:13.716Z,97503.19
2022-10-23T10:55:42.538Z,97505.63
2022-10-23T10:58:19.631Z,97502.75
2022-10-23T11:00:50.903Z,97500.19
2022-10-23T11:03:33.827Z,97488.66
2022-10-23T11:06:06.821Z,97491.31
2022-10-23T11:08:49.814Z,97478.34
2022-10-23T11:11:30.903Z,97481.19
2022-10-23T11:13:58.449Z,97465.06
2022-10-23T11:16:30.766Z,97470.81
2022-10-23T11:19:09.836Z,97474.81
2022-10-23T11:21:44.832Z,97458.34
2022-10-23T11:24:49.572Z,97458.63
2022-10-23T11:27:37.758Z,97448.72
2022-10-23T11:30:18.861Z,97455.28
2022-10-23T11:33:08.566Z,97466.44
2022-10-23T11:35:52.431Z,97461.00
2022-10-23T11:38:25.371Z,97458.47
2022-10-23T11:40:56.014Z,97463.72
2022-10-23T11:43:29.455Z,97462.03
2022-10-23T11:45:56.540Z,97468.75
2022-10-23T11:48:36.579Z,97466.03
2022-10-23T11:51:06.756Z,97456.44
2022-10-23T11:53:41.837Z,97443.78
2022-10-23T11:56:27.365Z,97435.13
2022-10-23T11:58:56.528Z,97428.09
2022-10-23T12:01:34.217Z,97424.09
2022-10-23T12:04:03.932Z,97421.09
2022-10-23T12:06:39.992Z,97424.44
2022-10-23T12:09:09.802Z,97412.78
2022-10-23T12:11:44.761Z,97415.34
2022-10-23T12:14:27.520Z,97409.28
2022-10-23T12:16:54.554Z,97411.34
2022-10-23T12:19:24.717Z,97415.50
2022-10-23T12:21:57.978Z,97405.13
2022-10-23T12:24:40.039Z,97403.38
2022-10-23T12:27:16.959Z,97406.25
2022-10-23T12:30:18.974Z,97400.16
2022-10-23T12:33:08.162Z,97400.16
2022-10-23T12:36:05.496Z,97377.03
2022-10-23T12:38:39.395Z,62402.38
2022-10-23T12:41:12.969Z,62402.38
2022-10-23T12:43:42.653Z,62402.38
2022-10-23T12:46:32.593Z,97378.88
2022-10-23T12:49:02.160Z,97377.88
2022-10-23T12:51:31.604Z,97367.13
2022-10-23T12:54:00.515Z,97359.28
2022-10-23T12:56:35.695Z,97339.31
2022-10-23T12:59:04.976Z,97350.31
2022-10-23T13:01:33.576Z,97347.13
2022-10-23T13:04:07.947Z,97331.59
2022-10-23T13:06:35.280Z,97331.69
2022-10-23T13:09:04.656Z,97332.94
2022-10-23T13:11:32.040Z,97323.69
2022-10-23T13:13:59.082Z,62402.38
2022-10-23T13:16:27.300Z,62402.38
2022-10-23T13:18:54.475Z,62402.38
2022-10-23T13:21:23.120Z,62402.38
2022-10-23T13:23:50.981Z,62402.38
2022-10-23T13:26:31.097Z,62402.38
2022-10-23T13:28:58.680Z,97293.50
2022-10-23T13:31:29.616Z,97289.78
2022-10-23T13:34:26.088Z,97284.47
2022-10-23T13:36:57.034Z,97278.72
2022-10-23T13:39:26.067Z,97273.59
2022-10-23T13:41:55.047Z,97277.38
2022-10-23T13:44:23.981Z,97269.59
2022-10-23T13:46:52.283Z,97266.38
2022-10-23T13:49:20.357Z,62402.38
2022-10-23T13:51:50.797Z,62402.38
2022-10-23T13:54:20.639Z,62402.38
2022-10-23T13:56:48.284Z,62402.38
2022-10-23T13:59:17.174Z,62402.38
2022-10-23T14:01:45.985Z,62402.38
2022-10-23T14:04:14.421Z,97260.72
2022-10-23T14:06:42.092Z,97265.13
2022-10-23T14:09:12.707Z,97273.56
2022-10-23T14:11:40.393Z,97274.34
2022-10-23T14:14:07.480Z,97277.75
2022-10-23T14:16:36.293Z,97275.19
2022-10-23T14:19:03.365Z,97273.22
2022-10-23T14:21:30.145Z,97286.38
2022-10-23T14:23:57.549Z,97276.44
2022-10-23T14:26:27.560Z,97279.53
2022-10-23T14:28:56.053Z,97269.03
2022-10-23T14:31:23.931Z,97268.13
2022-10-23T14:33:58.622Z,62402.38
2022-10-23T14:36:30.870Z,97268.13
2022-10-23T14:39:06.287Z,97253.94
2022-10-23T14:41:33.462Z,97254.25
2022-10-23T14:44:00.169Z,97260.72
2022-10-23T14:46:27.916Z,97254.47
2022-10-23T14:48:59.886Z,97256.78
2022-10-23T14:51:30.484Z,97245.13
2022-10-23T14:54:02.429Z,97239.81
2022-10-23T14:56:31.391Z,97241.28
2022-10-23T14:59:04.272Z,97226.66
2022-10-23T15:01:31.943Z,97219.34
2022-10-23T15:04:02.944Z,97218.88
2022-10-23T15:06:29.750Z,97214.16
2022-10-23T15:08:56.494Z,97210.03
2022-10-23T15:11:24.105Z,97208.16
2022-10-23T15:13:51.381Z,97196.63
2022-10-23T15:16:18.484Z,97199.00
2022-10-23T15:18:45.213Z,97194.53
2022-10-23T15:21:14.524Z,97194.53
2022-10-23T15:23:44.256Z,97191.69
2022-10-23T15:26:14.112Z,97192.16
2022-10-23T15:28:41.656Z,97192.56
2022-10-23T15:31:24.046Z,97198.00
2022-10-23T15:33:51.512Z,97188.09
2022-10-23T15:36:19.788Z,97179.13
2022-10-23T15:38:46.835Z,97187.03
2022-10-23T15:41:14.988Z,97189.09
2022-10-23T15:43:42.049Z,97190.53
2022-10-23T15:46:09.330Z,97188.13
2022-10-23T15:48:36.450Z,97187.22
2022-10-23T15:51:03.396Z,97180.34
2022-10-23T15:53:32.932Z,62402.38
2022-10-23T15:55:59.610Z,97180.34
2022-10-23T15:58:26.642Z,97161.38
2022-10-23T16:00:53.713Z,97157.88
2022-10-23T16:03:20.642Z,97162.97
2022-10-23T16:05:47.780Z,97155.78
2022-10-23T16:08:14.838Z,97143.75
2022-10-23T16:10:43.714Z,97136.97
2022-10-23T16:13:12.925Z,97133.53
2022-10-23T16:15:39.744Z,97130.69
2022-10-23T16:18:07.430Z,97137.91
2022-10-23T16:20:34.815Z,97137.75
2022-10-23T16:23:01.654Z,97136.16
2022-10-23T16:25:28.445Z,97146.69
2022-10-23T16:27:58.605Z,97144.47
2022-10-23T16:30:25.534Z,97133.59
2022-10-23T16:32:52.657Z,97138.38
2022-10-23T16:35:19.397Z,97141.09
2022-10-23T16:37:46.922Z,97152.91
2022-10-23T16:40:13.890Z,97152.91
2022-10-23T16:42:42.296Z,97139.03
2022-10-23T16:45:11.176Z,97148.63
2022-10-23T16:47:37.972Z,97157.59
2022-10-23T16:50:05.292Z,97152.81
2022-10-23T16:52:33.641Z,97141.63
2022-10-23T16:55:00.698Z,97131.41
2022-10-23T16:57:28.176Z,97136.84
2022-10-23T16:59:56.102Z,97123.09
2022-10-23T17:02:25.324Z,97103.03
2022-10-23T17:04:53.503Z,97096.81
2022-10-23T17:09:54.003Z,97100.19
2022-10-23T17:12:20.886Z,97097.94
2022-10-23T17:14:48.941Z,97083.41
2022-10-23T17:17:16.023Z,97090.44
2022-10-23T17:19:45.958Z,97105.63
2022-10-23T17:22:14.430Z,97109.00
2022-10-23T17:24:45.207Z,97100.38
2022-10-23T17:27:14.900Z,97102.91
2022-10-23T17:29:41.936Z,97101.97
2022-10-23T17:32:09.116Z,97115.41
2022-10-23T17:34:36.233Z,97110.94
2022-10-23T17:37:05.627Z,97119.44
2022-10-23T17:39:33.410Z,97132.22
2022-10-23T17:42:02.753Z,97122.50
2022-10-23T17:44:29.747Z,97131.75
2022-10-23T17:46:59.282Z,97147.59
2022-10-23T17:49:26.592Z,97164.06
2022-10-23T17:51:55.664Z,97176.50
2022-10-23T17:54:26.572Z,97182.53
2022-10-23T17:56:54.699Z,97187.06
2022-10-23T17:59:21.642Z,97195.25
2022-10-23T18:01:51.270Z,97201.88
2022-10-23T18:04:21.081Z,97215.09
2022-10-23T18:06:53.257Z,97227.72
2022-10-23T18:09:21.297Z,97223.94
2022-10-23T18:11:50.270Z,97226.94
2022-10-23T18:14:18.225Z,97225.69
2022-10-23T18:16:48.419Z,97218.47
2022-10-23T18:19:18.919Z,97217.19
2022-10-23T18:21:46.802Z,97225.81
2022-10-23T18:24:13.762Z,97210.25
2022-10-23T18:26:42.347Z,97217.34
2022-10-23T18:29:12.567Z,97233.69
2022-10-23T18:31:40.980Z,97253.53
2022-10-23T18:34:12.437Z,97245.28
2022-10-23T18:36:41.096Z,97243.88
2022-10-23T18:39:10.555Z,97239.81
2022-10-23T18:41:40.023Z,97231.97
2022-10-23T18:44:09.586Z,62402.38
2022-10-23T18:46:40.334Z,97231.97
2022-10-23T18:49:07.559Z,97215.13
2022-10-23T18:51:37.021Z,97209.41
2022-10-23T18:54:12.299Z,97206.69
2022-10-23T18:56:41.431Z,97190.97
2022-10-23T18:59:13.032Z,97169.88
2022-10-23T19:01:43.049Z,97126.16
2022-10-23T19:04:12.670Z,97105.84
2022-10-23T19:06:39.985Z,97116.59
2022-10-23T19:09:12.031Z,97117.38
2022-10-23T19:11:39.435Z,97119.91
2022-10-23T19:14:06.621Z,97140.75
2022-10-23T19:16:39.617Z,36680.25
2022-10-23T19:19:13.406Z,97153.88
2022-10-23T19:21:40.455Z,97153.09
2022-10-23T19:24:11.015Z,97166.75
2022-10-23T19:26:41.556Z,97163.91
2022-10-23T19:29:13.320Z,97167.81
2022-10-23T19:31:49.094Z,97174.75
2022-10-23T19:34:20.320Z,97182.75
2022-10-23T19:36:47.776Z,97182.00
2022-10-23T19:39:15.707Z,97193.03
2022-10-23T19:41:43.160Z,97191.28
2022-10-23T19:44:10.779Z,97195.75
2022-10-23T19:46:39.659Z,97193.38
2022-10-23T19:49:09.300Z,97203.75
2022-10-23T19:51:38.924Z,97200.72
2022-10-23T19:54:07.012Z,97196.75
2022-10-23T19:56:34.433Z,97203.44
2022-10-23T19:59:01.243Z,97202.50
2022-10-23T20:01:28.479Z,97200.91
2022-10-23T20:03:56.213Z,97196.56
2022-10-23T20:06:26.207Z,97194.03
2022-10-23T20:08:56.275Z,97203.13
2022-10-23T20:11:25.009Z,97206.81
2022-10-23T20:13:52.234Z,97206.34
2022-10-23T20:16:20.814Z,97213.66
2022-10-23T20:18:48.275Z,97218.16
2022-10-23T20:21:15.885Z,97225.03
2022-10-23T20:23:43.032Z,97222.63
2022-10-23T20:26:13.978Z,97219.25
2022-10-23T20:28:40.825Z,62402.38
2022-10-23T20:31:09.284Z,62402.38
2022-10-23T20:33:36.640Z,62402.38
2022-10-23T20:36:04.237Z,62402.38
2022-10-23T20:38:31.513Z,62402.38
2022-10-23T20:41:05.039Z,97209.25
2022-10-23T20:43:35.421Z,97211.84
2022-10-23T20:46:06.445Z,97219.50
2022-10-23T20:48:35.893Z,97220.28
2022-10-23T20:51:04.123Z,97220.28
2022-10-23T20:53:32.849Z,97215.66
2022-10-23T20:55:59.952Z,97220.00
2022-10-23T20:58:26.938Z,97224.13
2022-10-23T21:00:57.322Z,97216.13
2022-10-23T21:03:24.197Z,97212.28
2022-10-23T21:05:50.896Z,97217.25
2022-10-23T21:08:18.115Z,97216.91
2022-10-23T21:10:46.426Z,97225.75
2022-10-23T21:14:00.330Z,97209.84
2022-10-23T21:16:30.156Z,97215.44
2022-10-23T21:18:58.089Z,97212.88
2022-10-23T21:21:26.349Z,97214.91
2022-10-23T21:23:55.590Z,97207.56
2022-10-23T21:26:24.445Z,97216.38
2022-10-23T21:28:56.386Z,97222.75
2022-10-23T21:31:35.151Z,97213.19
2022-10-23T21:34:02.902Z,97223.88
2022-10-23T21:36:31.071Z,97225.38
2022-10-23T21:38:59.393Z,97211.59
2022-10-23T21:41:28.841Z,97222.25
2022-10-23T21:43:57.378Z,97229.63
2022-10-23T21:46:26.161Z,97237.22
2022-10-23T21:48:54.677Z,97235.22
2022-10-23T21:51:23.673Z,97237.94
2022-10-23T21:53:52.091Z,97225.75
2022-10-23T21:56:27.840Z,97246.88
2022-10-23T21:58:54.555Z,97239.69
2022-10-23T22:01:21.621Z,97237.13
2022-10-23T22:03:48.683Z,97233.00
2022-10-23T22:06:20.093Z,97242.97
2022-10-23T22:08:46.871Z,97248.56
2022-10-23T22:11:14.763Z,97238.97
2022-10-23T22:13:42.599Z,97236.59
2022-10-23T22:16:10.182Z,97237.06
2022-10-23T22:18:37.372Z,97248.31
2022-10-23T22:21:06.679Z,97237.59
2022-10-23T22:23:36.003Z,97247.41
2022-10-23T22:26:05.976Z,97246.88
2022-10-23T22:28:33.114Z,97237.91
2022-10-23T22:31:01.475Z,97240.75
2022-10-23T22:33:28.450Z,97234.25
2022-10-23T22:36:00.677Z,97231.09
2022-10-23T22:38:27.359Z,97241.03
2022-10-23T22:40:55.802Z,97241.03
2022-10-23T22:43:22.580Z,97237.41
2022-10-23T22:45:49.232Z,97226.88
2022-10-23T22:48:16.020Z,97220.69
2022-10-23T22:50:42.658Z,97225.88
2022-10-23T22:53:09.414Z,97229.75
2022-10-23T22:55:40.765Z,97243.28
2022-10-23T22:58:08.918Z,97243.72
2022-10-23T23:00:41.360Z,97243.31
2022-10-23T23:03:10.331Z,97248.13
2022-10-23T23:08:09.770Z,97255.75
2022-10-23T23:10:36.655Z,97258.59
2022-10-23T23:13:03.504Z,97274.03
2022-10-23T23:15:31.662Z,97264.06
2022-10-23T23:17:58.414Z,97269.47
2022-10-23T23:20:25.088Z,97268.38
2022-10-23T23:22:51.848Z,97273.75
2022-10-23T23:25:18.610Z,97273.44
2022-10-23T23:27:46.696Z,97264.84
2022-10-23T23:30:13.555Z,97266.88
2022-10-23T23:32:41.799Z,97274.56
2022-10-23T23:35:09.572Z,97275.75
2022-10-23T23:37:36.277Z,97266.63
2022-10-23T23:40:03.668Z,97263.31
2022-10-23T23:42:30.797Z,97267.91
2022-10-23T23:45:03.080Z,97263.78
2022-10-23T23:47:36.881Z,97258.69
2022-10-23T23:50:07.533Z,97259.81
2022-10-23T23:52:34.570Z,97252.34
2022-10-23T23:55:01.700Z,97252.16
2022-10-23T23:57:28.358Z,97245.84
2022-10-23T23:59:55.018Z,97249.81
